Time;durP1;ratioP1;P1;durP2;ratioP2;P2;SDS_P1;SDS_P2;PMS_P1;PMS_P2;Temp;Humidity;BMP_temperature;BMP_pressure;BME280_temperature;BME280_humidity;BME280_pressure;Samples;Min_cycle;Max_cycle;Signal;HPM_P1;HPM_P2
2022/07/09 00:02:25;;;;;;;1.25;1.25;;;17.90;99.90;;;;;;6191224;28;20278;-68
2022/07/09 00:05:30;;;;;;;1.52;1.40;;;17.80;99.90;;;;;;6176699;28;20589;-67
2022/07/09 00:08:37;;;;;;;1.25;1.20;;;17.70;99.90;;;;;;6167970;28;20278;-68
2022/07/09 00:11:42;;;;;;;1.30;1.30;;;17.70;99.90;;;;;;6167555;28;20302;-67
2022/07/09 00:14:48;;;;;;;3.50;1.70;;;17.70;99.90;;;;;;6167625;29;20274;-67
2022/07/09 00:17:54;;;;;;;11.30;2.00;;;17.80;99.90;;;;;;6167542;29;20279;-67
2022/07/09 00:20:59;;;;;;;1.73;1.60;;;17.70;99.90;;;;;;6167595;29;20346;-67
2022/07/09 00:24:06;;;;;;;8.60;1.50;;;17.70;99.90;;;;;;6167513;29;20274;-68
2022/07/09 00:27:11;;;;;;;6.88;2.00;;;17.70;99.90;;;;;;6167398;29;20279;-67
2022/07/09 00:30:17;;;;;;;6.85;1.77;;;17.60;99.90;;;;;;6166917;29;20526;-67
2022/07/09 00:33:22;;;;;;;13.68;1.98;;;17.70;99.90;;;;;;6167290;29;20270;-67
2022/07/09 00:36:28;;;;;;;1.48;1.33;;;17.70;99.90;;;;;;6167307;29;20274;-68
2022/07/09 00:39:35;;;;;;;3.67;1.13;;;17.70;99.90;;;;;;6167261;28;20299;-67
2022/07/09 00:42:40;;;;;;;1.45;1.30;;;17.70;99.90;;;;;;6166697;29;20274;-67
2022/07/09 00:45:46;;;;;;;2.88;1.20;;;17.70;99.90;;;;;;6167043;28;20279;-67
2022/07/09 00:48:51;;;;;;;1.50;1.40;;;17.60;99.90;;;;;;6166795;29;20266;-67
2022/07/09 00:51:57;;;;;;;1.30;1.27;;;17.60;99.90;;;;;;6167017;28;20270;-67
2022/07/09 00:55:05;;;;;;;4.47;1.60;;;17.70;99.90;;;;;;6166841;29;20294;-67
2022/07/09 00:58:13;;;;;;;1.27;1.27;;;17.70;99.90;;;;;;6166269;29;20275;-68
2022/07/09 01:01:18;;;;;;;1.50;1.40;;;17.60;99.90;;;;;;6166309;28;20491;-67
2022/07/09 01:04:23;;;;;;;5.68;1.30;;;17.60;99.90;;;;;;6166534;29;20270;-68
2022/07/09 01:07:29;;;;;;;1.60;1.42;;;17.60;99.90;;;;;;6166275;28;20455;-68
2022/07/09 01:10:37;;;;;;;1.20;1.20;;;17.60;99.90;;;;;;6171281;28;20309;-68
2022/07/09 01:13:43;;;;;;;3.75;1.45;;;17.60;99.90;;;;;;6190246;28;20270;-68
2022/07/09 01:16:57;;;;;;;1.30;1.30;;;17.60;99.90;;;;;;6190148;28;20568;-68
2022/07/09 01:20:02;;;;;;;1.20;1.20;;;17.50;99.90;;;;;;6189905;28;20294;-68
2022/07/09 01:23:10;;;;;;;1.67;1.58;;;17.50;99.90;;;;;;6189941;28;20294;-68
2022/07/09 01:26:16;;;;;;;1.55;1.50;;;17.50;99.90;;;;;;6190001;28;20274;-67
2022/07/09 01:29:21;;;;;;;1.40;1.40;;;17.50;99.90;;;;;;6189472;28;20273;-67
2022/07/09 01:32:27;;;;;;;2.47;1.33;;;17.50;99.90;;;;;;6189708;28;20278;-67
2022/07/09 01:35:32;;;;;;;2.88;1.60;;;17.40;99.90;;;;;;6189744;28;20270;-67
2022/07/09 01:38:40;;;;;;;5.07;1.25;;;17.40;99.90;;;;;;6189659;28;20274;-67
2022/07/09 01:41:45;;;;;;;10.93;1.80;;;17.40;99.90;;;;;;6189016;28;20293;-67
2022/07/09 01:44:50;;;;;;;7.60;1.92;;;17.30;99.90;;;;;;6189501;28;20450;-67
2022/07/09 01:47:55;;;;;;;5.80;1.75;;;17.40;99.90;;;;;;6189027;28;20340;-67
2022/07/09 01:51:00;;;;;;;5.88;2.13;;;17.30;99.90;;;;;;6189300;28;20581;-67
2022/07/09 01:54:07;;;;;;;7.85;1.50;;;17.30;99.90;;;;;;6189259;28;20274;-67
2022/07/09 01:57:13;;;;;;;1.52;1.42;;;17.30;99.90;;;;;;6188801;28;20275;-67
2022/07/09 02:00:19;;;;;;;1.77;1.30;;;17.30;99.90;;;;;;6188976;28;20294;-67
2022/07/09 02:03:24;;;;;;;2.85;1.15;;;17.20;99.90;;;;;;6188730;28;20278;-67
2022/07/09 02:06:30;;;;;;;2.00;1.30;;;17.20;99.90;;;;;;6166272;28;20267;-68
2022/07/09 02:09:37;;;;;;;9.18;1.40;;;17.20;99.90;;;;;;6164834;28;20279;-68
2022/07/09 02:12:42;;;;;;;2.28;1.63;;;17.20;99.90;;;;;;6163873;28;20298;-67
2022/07/09 02:15:48;;;;;;;1.10;1.10;;;17.20;99.90;;;;;;6164577;29;20270;-67
2022/07/09 02:18:54;;;;;;;2.88;1.40;;;17.20;99.90;;;;;;6164446;29;20274;-67
2022/07/09 02:21:59;;;;;;;5.43;1.30;;;17.20;99.90;;;;;;6164499;28;20314;-67
2022/07/09 02:25:08;;;;;;;3.50;1.40;;;17.10;99.90;;;;;;6164427;29;20589;-67
2022/07/09 02:28:13;;;;;;;3.60;1.45;;;17.10;99.90;;;;;;6164167;29;20279;-67
2022/07/09 02:31:18;;;;;;;1.75;1.65;;;17.10;99.90;;;;;;6164707;29;20278;-67
2022/07/09 02:34:24;;;;;;;3.03;1.40;;;17.10;99.90;;;;;;6164250;29;20460;-67
2022/07/09 02:37:29;;;;;;;3.28;1.42;;;17.10;99.90;;;;;;6164551;29;20274;-67
2022/07/09 02:40:36;;;;;;;1.90;1.30;;;17.00;99.90;;;;;;6164485;29;20601;-67
2022/07/09 02:43:42;;;;;;;6.63;1.45;;;17.10;99.90;;;;;;6164249;29;20274;-67
2022/07/09 02:46:48;;;;;;;8.35;1.77;;;17.00;99.90;;;;;;6164486;28;20274;-67
2022/07/09 02:49:53;;;;;;;7.88;1.45;;;17.00;99.90;;;;;;6164324;29;20270;-67
2022/07/09 02:53:00;;;;;;;3.22;1.42;;;17.10;99.90;;;;;;6164380;29;20278;-67
2022/07/09 02:56:07;;;;;;;1.10;1.10;;;17.00;99.90;;;;;;6164227;29;20283;-67
2022/07/09 02:59:12;;;;;;;2.92;1.30;;;17.00;99.90;;;;;;6164382;28;20458;-67
2022/07/09 03:02:17;;;;;;;1.30;1.30;;;17.10;99.90;;;;;;6164317;28;20294;-67
2022/07/09 03:05:23;;;;;;;1.30;1.20;;;17.00;99.90;;;;;;6163949;29;20266;-67
2022/07/09 03:08:28;;;;;;;1.83;1.40;;;17.10;99.90;;;;;;6164155;28;20274;-67
2022/07/09 03:11:34;;;;;;;1.50;1.20;;;17.00;99.90;;;;;;6176530;28;20306;-67
2022/07/09 03:14:40;;;;;;;2.10;1.15;;;17.10;99.90;;;;;;6187582;28;20278;-67
2022/07/09 03:17:45;;;;;;;1.45;1.45;;;17.00;99.90;;;;;;6188153;28;20274;-67
2022/07/09 03:20:51;;;;;;;1.20;1.20;;;17.10;99.90;;;;;;6187863;28;20276;-67
2022/07/09 03:23:56;;;;;;;2.80;1.33;;;17.10;99.90;;;;;;6188267;28;20565;-67
2022/07/09 03:27:03;;;;;;;1.02;1.02;;;17.20;99.90;;;;;;6192379;28;20286;-67
2022/07/09 03:30:10;;;;;;;2.10;1.10;;;17.20;99.90;;;;;;6192601;28;20273;-67
2022/07/09 03:33:17;;;;;;;2.47;1.20;;;17.20;99.90;;;;;;6192532;28;20281;-67
2022/07/09 03:36:23;;;;;;;1.35;1.20;;;17.20;99.90;;;;;;6191897;28;20274;-67
2022/07/09 03:39:28;;;;;;;1.10;1.10;;;17.30;99.90;;;;;;6192361;28;20270;-67
2022/07/09 03:42:35;;;;;;;1.10;1.05;;;17.30;99.90;;;;;;6192320;28;20298;-68
2022/07/09 03:45:40;;;;;;;1.00;1.00;;;17.20;99.90;;;;;;6192104;28;20269;-67
2022/07/09 03:48:48;;;;;;;1.08;1.08;;;17.30;99.90;;;;;;6192131;28;20273;-67
2022/07/09 03:51:53;;;;;;;2.63;1.15;;;17.20;99.90;;;;;;6192065;28;20281;-67
2022/07/09 03:55:19;;;;;;;1.15;1.10;;;17.20;99.90;;;;;;6191591;28;20269;-67
2022/07/09 03:58:26;;;;;;;1.10;1.10;;;17.30;99.90;;;;;;6191877;28;20274;-67
2022/07/09 04:01:31;;;;;;;1.00;1.00;;;17.30;99.90;;;;;;6191853;28;20293;-67
2022/07/09 04:04:36;;;;;;;1.10;1.10;;;17.30;99.90;;;;;;6183797;28;20267;-67
2022/07/09 04:07:41;;;;;;;1.00;1.00;;;17.30;99.90;;;;;;6167921;28;20279;-67
2022/07/09 04:10:47;;;;;;;1.17;0.95;;;17.30;99.90;;;;;;6167775;29;20302;-68
2022/07/09 04:13:53;;;;;;;2.03;1.08;;;17.30;99.90;;;;;;6167849;28;20299;-67
2022/07/09 04:16:58;;;;;;;1.05;1.05;;;17.30;99.90;;;;;;6167724;29;20274;-67
2022/07/09 04:20:05;;;;;;;2.92;0.95;;;17.20;99.90;;;;;;6167181;29;20274;-67
2022/07/09 04:23:11;;;;;;;2.00;1.85;;;17.30;99.90;;;;;;6167476;29;20299;-67
2022/07/09 04:26:18;;;;;;;2.10;2.05;;;17.40;99.90;;;;;;6167243;28;20274;-67
2022/07/09 04:29:25;;;;;;;1.40;1.40;;;17.40;99.90;;;;;;6167401;29;20278;-67
2022/07/09 04:32:30;;;;;;;2.05;1.10;;;17.30;99.90;;;;;;6167159;28;20278;-67
2022/07/09 04:35:36;;;;;;;1.10;1.10;;;17.40;99.90;;;;;;6166565;28;20279;-68
2022/07/09 04:38:41;;;;;;;1.65;1.00;;;17.40;99.90;;;;;;6166643;29;20278;-67
2022/07/09 04:41:46;;;;;;;0.93;0.93;;;17.40;99.90;;;;;;6167031;29;20275;-67
2022/07/09 04:44:53;;;;;;;1.77;1.00;;;17.40;99.90;;;;;;6167051;29;20558;-68
2022/07/09 04:47:59;;;;;;;4.82;0.90;;;17.40;99.90;;;;;;6166799;29;20274;-67
2022/07/09 04:51:05;;;;;;;1.10;1.10;;;17.50;99.90;;;;;;6166952;29;20274;-67
2022/07/09 04:54:10;;;;;;;3.30;1.00;;;17.50;99.90;;;;;;6167096;28;20274;-67
2022/07/09 04:57:15;;;;;;;1.17;0.80;;;17.60;99.90;;;;;;6165559;28;20414;-67
2022/07/09 05:00:22;;;;;;;2.00;0.90;;;17.60;99.90;;;;;;6166853;28;20266;-67
2022/07/09 05:03:27;;;;;;;0.90;0.90;;;17.60;99.90;;;;;;6166352;28;20605;-67
2022/07/09 05:06:32;;;;;;;0.88;0.88;;;17.60;99.90;;;;;;6166020;29;20437;-67
2022/07/09 05:09:37;;;;;;;2.35;1.02;;;17.60;99.90;;;;;;6166329;29;20274;-67
2022/07/09 05:12:43;;;;;;;1.00;1.00;;;17.70;99.90;;;;;;6187574;28;20302;-67
2022/07/09 05:15:49;;;;;;;1.55;0.93;;;17.60;99.90;;;;;;6190019;28;20269;-67
2022/07/09 05:18:55;;;;;;;1.05;1.05;;;17.70;99.90;;;;;;6190079;28;20548;-67
2022/07/09 05:22:01;;;;;;;1.00;1.00;;;17.70;99.90;;;;;;6189973;28;20274;-67
2022/07/09 05:25:07;;;;;;;1.25;1.20;;;17.60;99.90;;;;;;6189755;28;20301;-67
2022/07/09 05:28:18;;;;;;;6.00;1.15;;;17.60;99.90;;;;;;6189880;28;20274;-67
2022/07/09 05:31:24;;;;;;;1.30;1.20;;;17.60;99.90;;;;;;6189341;28;20273;-67
2022/07/09 05:34:39;;;;;;;1.52;1.15;;;17.60;99.90;;;;;;6189294;28;20297;-67
2022/07/09 05:37:45;;;;;;;2.20;1.10;;;17.70;99.90;;;;;;6189351;28;20291;-67
2022/07/09 05:40:50;;;;;;;2.20;1.20;;;17.60;99.90;;;;;;6189496;28;20274;-67
2022/07/09 05:43:55;;;;;;;2.13;1.10;;;17.60;99.90;;;;;;6189300;28;20600;-67
2022/07/09 05:47:02;;;;;;;1.17;1.10;;;17.60;99.90;;;;;;6189061;28;20459;-67
2022/07/09 05:50:09;;;;;;;1.15;1.15;;;17.60;99.90;;;;;;6189571;28;20262;-67
2022/07/09 05:53:15;;;;;;;2.47;1.35;;;17.70;99.90;;;;;;6189261;28;20274;-67
2022/07/09 05:56:20;;;;;;;1.35;1.08;;;17.70;99.90;;;;;;6188875;28;20593;-67
2022/07/09 05:59:26;;;;;;;1.23;1.20;;;17.80;99.90;;;;;;6189246;28;20580;-69
2022/07/09 06:02:32;;;;;;;1.92;1.00;;;17.80;99.90;;;;;;6189117;28;20450;-66
2022/07/09 06:05:38;;;;;;;1.55;1.10;;;17.80;99.90;;;;;;6173094;28;20294;-66
2022/07/09 06:08:43;;;;;;;1.20;1.20;;;17.80;99.90;;;;;;6165333;28;20274;-66
2022/07/09 06:11:49;;;;;;;2.20;1.25;;;17.90;99.90;;;;;;6164651;28;20314;-67
2022/07/09 06:14:54;;;;;;;1.73;1.20;;;17.90;99.90;;;;;;6165011;29;20278;-66
2022/07/09 06:18:00;;;;;;;1.52;1.17;;;17.90;99.90;;;;;;6164585;29;20274;-66
2022/07/09 06:21:06;;;;;;;4.15;1.20;;;18.10;99.90;;;;;;6164509;29;20274;-66
2022/07/09 06:24:12;;;;;;;2.13;1.30;;;18.00;99.90;;;;;;6164907;29;20290;-66
2022/07/09 06:27:17;;;;;;;1.70;1.10;;;18.10;99.90;;;;;;6163693;28;20275;-66
2022/07/09 06:30:22;;;;;;;5.20;1.30;;;18.10;99.90;;;;;;6164827;28;20274;-67
2022/07/09 06:33:28;;;;;;;4.47;1.60;;;18.10;99.90;;;;;;6164240;29;20586;-66
2022/07/09 06:36:33;;;;;;;2.05;1.23;;;18.20;99.90;;;;;;6164217;29;20274;-66
2022/07/09 06:39:48;;;;;;;3.33;1.40;;;18.10;99.90;;;;;;6164664;28;20457;-66
2022/07/09 06:42:54;;;;;;;1.52;1.10;;;18.30;99.90;;;;;;6164590;29;20278;-67
2022/07/09 06:46:02;;;;;;;5.15;1.65;;;18.30;99.90;;;;;;6163274;28;20593;-67
2022/07/09 06:49:09;;;;;;;3.80;1.35;;;18.20;99.90;;;;;;6163916;29;20278;-67
2022/07/09 06:52:14;;;;;;;1.48;1.30;;;18.40;99.90;;;;;;6164379;29;20271;-67
2022/07/09 06:55:19;;;;;;;6.57;1.55;;;18.40;99.90;;;;;;6164209;29;20278;-67
2022/07/09 06:58:25;;;;;;;5.65;1.40;;;18.40;99.90;;;;;;6164535;28;20270;-67
2022/07/09 07:01:30;;;;;;;4.60;1.27;;;18.40;99.90;;;;;;6171919;28;20278;-67
2022/07/09 07:04:36;;;;;;;4.45;1.50;;;18.30;99.90;;;;;;6172040;29;20294;-66
2022/07/09 07:07:42;;;;;;;2.22;1.48;;;18.40;99.90;;;;;;6171561;28;20278;-67
2022/07/09 07:10:47;;;;;;;2.53;1.27;;;18.40;99.90;;;;;;6178236;28;20297;-66
2022/07/09 07:13:52;;;;;;;6.60;1.55;;;18.50;99.90;;;;;;6195447;28;20272;-67
2022/07/09 07:16:57;;;;;;;3.10;1.45;;;18.50;99.90;;;;;;6195876;28;20273;-67
2022/07/09 07:20:05;;;;;;;1.63;1.50;;;18.70;99.90;;;;;;6195508;28;20282;-67
2022/07/09 07:23:11;;;;;;;1.20;1.15;;;18.70;99.90;;;;;;6195813;28;20599;-67
2022/07/09 07:26:17;;;;;;;1.42;1.33;;;18.80;99.90;;;;;;6195857;28;20471;-67
2022/07/09 07:29:22;;;;;;;1.77;1.45;;;18.90;99.90;;;;;;6195359;28;20521;-67
2022/07/09 07:32:28;;;;;;;2.22;1.10;;;19.00;99.90;;;;;;6195268;28;20279;-67
2022/07/09 07:35:34;;;;;;;6.43;1.88;;;19.20;99.90;;;;;;6195616;28;20277;-67
2022/07/09 07:38:39;;;;;;;2.80;1.15;;;19.30;99.90;;;;;;6195257;28;20273;-68
2022/07/09 07:41:45;;;;;;;3.00;1.23;;;19.30;99.90;;;;;;6195759;28;20278;-67
2022/07/09 07:44:50;;;;;;;1.30;1.10;;;19.30;99.90;;;;;;6195058;28;20293;-67
2022/07/09 07:47:56;;;;;;;2.00;1.30;;;19.30;99.90;;;;;;6195065;28;20442;-67
2022/07/09 07:51:03;;;;;;;1.52;1.50;;;19.30;99.90;;;;;;6194919;28;20273;-67
2022/07/09 07:54:08;;;;;;;11.00;1.85;;;19.30;99.90;;;;;;6195265;28;20278;-67
2022/07/09 07:57:14;;;;;;;3.75;1.40;;;19.20;99.90;;;;;;6195214;28;20282;-67
2022/07/09 08:00:19;;;;;;;2.40;1.45;;;19.20;99.90;;;;;;6195414;28;20401;-67
2022/07/09 08:03:24;;;;;;;4.25;1.83;;;19.20;99.90;;;;;;6194868;28;20564;-67
2022/07/09 08:06:37;;;;;;;1.52;1.35;;;19.30;99.90;;;;;;6170921;28;20295;-67
2022/07/09 08:09:43;;;;;;;4.68;1.70;;;19.50;99.90;;;;;;6171546;28;20279;-67
2022/07/09 08:12:48;;;;;;;1.23;1.10;;;19.60;99.90;;;;;;6166004;28;20306;-66
2022/07/09 08:15:53;;;;;;;1.17;1.13;;;19.80;99.90;;;;;;6167400;28;20278;-67
2022/07/09 08:18:58;;;;;;;1.17;1.15;;;19.80;99.90;;;;;;6167635;29;20286;-67
2022/07/09 08:22:05;;;;;;;1.23;1.15;;;19.80;99.90;;;;;;6167008;29;20271;-67
2022/07/09 08:25:13;;;;;;;3.53;1.20;;;19.90;99.90;;;;;;6166809;29;20593;-68
2022/07/09 08:28:19;;;;;;;1.20;1.10;;;20.00;99.90;;;;;;6167076;29;20278;-67
2022/07/09 08:31:25;;;;;;;3.35;1.27;;;20.00;99.90;;;;;;6166814;29;20278;-67
2022/07/09 08:34:30;;;;;;;1.35;1.25;;;20.10;99.90;;;;;;6167159;29;20451;-67
2022/07/09 08:37:37;;;;;;;2.70;1.42;;;20.20;99.90;;;;;;6167048;29;20352;-67
2022/07/09 08:40:42;;;;;;;1.30;1.30;;;20.10;99.90;;;;;;6166528;29;20271;-67
2022/07/09 08:43:52;;;;;;;1.40;1.40;;;20.00;99.90;;;;;;6166955;28;20274;-67
2022/07/09 08:46:58;;;;;;;1.73;1.40;;;20.00;99.90;;;;;;6166510;29;20290;-67
2022/07/09 08:50:04;;;;;;;2.13;1.38;;;19.90;99.90;;;;;;6166659;29;20270;-67
2022/07/09 08:53:13;;;;;;;1.95;1.40;;;19.80;99.90;;;;;;6166320;29;20457;-67
2022/07/09 08:56:19;;;;;;;2.15;1.40;;;19.90;99.90;;;;;;6166276;29;20282;-68
2022/07/09 08:59:24;;;;;;;1.25;1.20;;;20.00;99.90;;;;;;6166495;29;20270;-68
2022/07/09 09:02:36;;;;;;;1.30;1.30;;;20.00;99.90;;;;;;6166723;28;20448;-68
2022/07/09 09:05:41;;;;;;;1.70;1.60;;;20.00;99.90;;;;;;6166580;29;20287;-68
2022/07/09 09:08:48;;;;;;;1.35;1.35;;;20.10;99.90;;;;;;6166229;28;20286;-68
2022/07/09 09:11:58;;;;;;;1.10;1.00;;;20.10;99.90;;;;;;6180849;28;20321;-67
2022/07/09 09:15:08;;;;;;;1.20;1.20;;;20.20;99.90;;;;;;6190052;28;20274;-67
2022/07/09 09:18:15;;;;;;;1.92;1.70;;;20.20;99.90;;;;;;6189949;28;20557;-67
2022/07/09 09:21:22;;;;;;;3.90;1.40;;;20.20;99.90;;;;;;6189610;28;20277;-67
2022/07/09 09:24:29;;;;;;;1.17;1.13;;;20.20;99.90;;;;;;6189077;28;20444;-67
2022/07/09 09:27:35;;;;;;;1.23;1.23;;;20.30;99.00;;;;;;6189311;28;20302;-67
2022/07/09 09:30:43;;;;;;;3.75;1.20;;;20.30;98.90;;;;;;6189652;28;20274;-67
2022/07/09 09:33:49;;;;;;;1.15;1.15;;;20.30;98.30;;;;;;6189004;28;20279;-67
2022/07/09 09:36:55;;;;;;;3.20;1.48;;;20.30;97.90;;;;;;6189390;28;20274;-67
2022/07/09 09:40:10;;;;;;;3.97;1.10;;;20.40;98.10;;;;;;6188662;28;20529;-67
2022/07/09 09:43:20;;;;;;;1.23;1.08;;;20.40;97.20;;;;;;6189370;28;20270;-68
2022/07/09 09:46:25;;;;;;;1.85;1.40;;;20.50;97.90;;;;;;6189107;28;20471;-67
2022/07/09 09:49:32;;;;;;;1.60;1.27;;;20.50;98.20;;;;;;6188786;28;20269;-67
2022/07/09 09:52:37;;;;;;;3.05;2.95;;;20.50;98.90;;;;;;6188951;28;20274;-67
2022/07/09 09:55:46;;;;;;;1.40;1.40;;;20.60;98.30;;;;;;6188820;28;20273;-67
2022/07/09 09:58:51;;;;;;;1.10;1.10;;;20.70;97.70;;;;;;6188599;28;20273;-67
2022/07/09 10:01:56;;;;;;;1.30;1.20;;;20.80;97.90;;;;;;6188957;28;20278;-67
2022/07/09 10:05:02;;;;;;;1.27;1.27;;;20.80;97.00;;;;;;6177353;28;20290;-67
2022/07/09 10:08:08;;;;;;;1.77;1.27;;;20.70;97.20;;;;;;6164902;29;20299;-67
2022/07/09 10:11:15;;;;;;;1.88;1.02;;;20.70;97.20;;;;;;6165028;29;20302;-67
2022/07/09 10:14:32;;;;;;;1.85;1.40;;;20.70;96.40;;;;;;6164722;29;20557;-67
2022/07/09 10:17:41;;;;;;;1.63;1.52;;;20.50;96.50;;;;;;6164607;28;20294;-68
2022/07/09 10:20:49;;;;;;;1.17;1.17;;;20.40;95.10;;;;;;6164467;29;20458;-68
2022/07/09 10:23:54;;;;;;;1.38;1.38;;;20.40;94.50;;;;;;6164874;28;20270;-68
2022/07/09 10:27:08;;;;;;;1.33;1.30;;;20.50;95.60;;;;;;6164614;29;20298;-68
2022/07/09 10:30:25;;;;;;;1.02;1.02;;;20.60;95.70;;;;;;6164648;29;20511;-68
2022/07/09 10:33:35;;;;;;;3.38;1.50;;;20.60;95.10;;;;;;6163674;28;20271;-67
2022/07/09 10:36:41;;;;;;;3.60;3.30;;;20.60;93.70;;;;;;6164224;28;20442;-67
2022/07/09 10:39:54;;;;;;;2.00;2.00;;;20.50;94.70;;;;;;6163908;29;20279;-67
2022/07/09 10:43:03;;;;;;;4.55;1.33;;;20.60;94.20;;;;;;6164479;29;20274;-67
2022/07/09 10:46:12;;;;;;;3.83;1.15;;;20.70;94.00;;;;;;6164206;29;20278;-67
2022/07/09 10:49:18;;;;;;;3.22;1.30;;;20.80;93.40;;;;;;6163856;29;20290;-67
2022/07/09 10:52:31;;;;;;;1.63;1.52;;;20.80;94.00;;;;;;6164160;29;20274;-67
2022/07/09 10:55:36;;;;;;;2.97;1.50;;;21.00;94.80;;;;;;6163771;29;20318;-67
2022/07/09 10:58:47;;;;;;;1.20;1.20;;;21.10;94.40;;;;;;6164134;28;20270;-67
2022/07/09 11:01:55;;;;;;;5.45;1.17;;;21.20;94.20;;;;;;6164065;29;20271;-67
2022/07/09 11:05:00;;;;;;;5.88;1.10;;;21.20;93.60;;;;;;6163863;29;20271;-68
2022/07/09 11:08:08;;;;;;;1.30;1.30;;;21.30;93.80;;;;;;6163843;29;20338;-67
2022/07/09 11:11:13;;;;;;;1.42;1.42;;;21.40;93.90;;;;;;6173103;28;20482;-67
2022/07/09 11:14:21;;;;;;;1.85;1.02;;;21.40;94.40;;;;;;6187810;28;20270;-68
2022/07/09 11:17:27;;;;;;;1.23;1.00;;;21.40;94.10;;;;;;6187823;28;20278;-68
2022/07/09 11:20:33;;;;;;;2.20;1.10;;;21.20;93.70;;;;;;6187409;28;20479;-68
2022/07/09 11:23:39;;;;;;;1.17;1.17;;;21.00;93.20;;;;;;6187703;28;20459;-68
2022/07/09 11:26:44;;;;;;;1.50;1.48;;;20.90;93.60;;;;;;6187422;28;20277;-68
2022/07/09 11:29:50;;;;;;;1.50;1.50;;;20.80;93.50;;;;;;6187725;28;20298;-68
2022/07/09 11:32:56;;;;;;;1.30;1.30;;;20.90;94.20;;;;;;6187563;28;20279;-68
2022/07/09 11:36:02;;;;;;;1.55;1.13;;;20.90;94.80;;;;;;6187427;28;20289;-68
2022/07/09 11:39:07;;;;;;;1.05;1.05;;;21.00;94.20;;;;;;6187358;28;20277;-68
2022/07/09 11:42:18;;;;;;;0.98;0.98;;;21.20;92.30;;;;;;6187355;28;20274;-68
2022/07/09 11:45:27;;;;;;;1.05;1.05;;;21.40;92.60;;;;;;6188600;28;20530;-68
2022/07/09 11:48:33;;;;;;;1.23;1.20;;;21.40;92.80;;;;;;6191389;28;20294;-68
2022/07/09 11:51:39;;;;;;;1.40;1.40;;;21.50;92.90;;;;;;6191551;28;20274;-68
2022/07/09 11:54:58;;;;;;;21.17;7.15;;;21.40;89.30;;;;;;6191705;28;20568;-68
2022/07/09 11:58:08;;;;;;;1.38;1.38;;;21.50;90.70;;;;;;6174563;28;20564;-68
2022/07/09 12:01:15;;;;;;;1.30;1.30;;;21.50;90.70;;;;;;6191829;28;20274;-68
2022/07/09 12:04:20;;;;;;;2.45;1.95;;;21.60;90.60;;;;;;6185790;28;20266;-68
2022/07/09 12:07:25;;;;;;;1.17;1.10;;;21.70;90.70;;;;;;6167525;28;20270;-68
2022/07/09 12:10:33;;;;;;;0.80;0.80;;;21.70;90.90;;;;;;6167590;29;20302;-68
2022/07/09 12:13:39;;;;;;;0.77;0.77;;;21.90;87.10;;;;;;6166997;29;20279;-68
2022/07/09 12:16:45;;;;;;;1.00;1.00;;;21.90;87.80;;;;;;6167796;28;20278;-68
2022/07/09 12:19:50;;;;;;;0.88;0.88;;;21.90;87.90;;;;;;6167518;29;20565;-68
2022/07/09 12:22:56;;;;;;;2.03;1.92;;;22.10;87.70;;;;;;6167028;29;20440;-68
2022/07/09 12:26:01;;;;;;;1.17;1.17;;;22.10;85.00;;;;;;6167458;29;20274;-68
2022/07/09 12:29:07;;;;;;;0.80;0.80;;;22.00;85.70;;;;;;6167250;29;20299;-68
2022/07/09 12:32:13;;;;;;;0.98;0.98;;;22.10;87.70;;;;;;6167502;28;20278;-68
2022/07/09 12:35:19;;;;;;;0.90;0.90;;;22.30;85.90;;;;;;6167181;29;20274;-68
2022/07/09 12:38:24;;;;;;;0.90;0.90;;;22.40;86.20;;;;;;6167342;28;20270;-68
2022/07/09 12:41:30;;;;;;;1.08;0.90;;;22.40;83.60;;;;;;6166466;29;20282;-68
2022/07/09 12:44:36;;;;;;;1.00;1.00;;;22.50;81.20;;;;;;6166754;29;20274;-68
2022/07/09 12:47:42;;;;;;;0.93;0.93;;;22.60;79.90;;;;;;6166074;29;20274;-68
2022/07/09 12:50:48;;;;;;;0.90;0.90;;;22.40;78.30;;;;;;6166042;29;20314;-68
2022/07/09 12:53:54;;;;;;;1.73;1.15;;;22.50;80.40;;;;;;6166361;29;20565;-68
2022/07/09 12:56:59;;;;;;;0.82;0.82;;;22.50;78.20;;;;;;6165705;28;20274;-68
2022/07/09 13:00:15;;;;;;;3.45;1.08;;;22.70;77.70;;;;;;6166623;29;20278;-67
2022/07/09 13:03:22;;;;;;;2.10;0.88;;;22.80;78.40;;;;;;6166264;29;20274;-68
2022/07/09 13:06:33;;;;;;;2.05;1.40;;;22.90;76.90;;;;;;6165920;29;20558;-67
2022/07/09 13:09:39;;;;;;;1.60;1.33;;;22.80;71.40;;;;;;6164855;29;20294;-68
2022/07/09 13:12:44;;;;;;;1.17;1.17;;;22.90;74.10;;;;;;6188259;28;20302;-67
2022/07/09 13:15:51;;;;;;;0.90;0.90;;;22.90;77.70;;;;;;6190150;28;20553;-68
2022/07/09 13:18:58;;;;;;;3.92;1.33;;;23.00;73.00;;;;;;6189639;28;20329;-67
2022/07/09 13:22:04;;;;;;;0.80;0.80;;;23.00;71.40;;;;;;6189633;28;20277;-67
2022/07/09 13:25:09;;;;;;;0.95;0.95;;;22.90;68.70;;;;;;6189605;28;20557;-68
2022/07/09 13:28:15;;;;;;;3.40;1.20;;;23.00;73.50;;;;;;6189861;28;20557;-68
2022/07/09 13:31:21;;;;;;;1.00;1.00;;;23.00;73.40;;;;;;6189574;28;20297;-67
2022/07/09 13:34:28;;;;;;;2.08;1.30;;;23.00;71.00;;;;;;6189888;28;20557;-67
2022/07/09 13:37:33;;;;;;;1.00;0.80;;;23.10;72.00;;;;;;6189429;28;20278;-67
2022/07/09 13:40:39;;;;;;;0.93;0.93;;;23.30;71.30;;;;;;6189418;28;20277;-67
2022/07/09 13:43:45;;;;;;;4.85;1.00;;;23.40;72.80;;;;;;6189032;28;20456;-68
2022/07/09 13:46:51;;;;;;;0.90;0.90;;;23.50;70.80;;;;;;6188895;28;20278;-67
2022/07/09 13:49:57;;;;;;;0.80;0.80;;;24.10;65.50;;;;;;6189355;28;20293;-68
2022/07/09 13:53:02;;;;;;;0.95;0.90;;;24.90;66.40;;;;;;6188787;28;20314;-68
2022/07/09 13:56:08;;;;;;;0.80;0.80;;;26.70;62.80;;;;;;6189141;28;20266;-67
2022/07/09 13:59:14;;;;;;;1.42;0.98;;;26.50;57.90;;;;;;6189211;28;20278;-67
2022/07/09 14:02:19;;;;;;;4.13;0.90;;;26.20;59.20;;;;;;6188654;28;20278;-68
2022/07/09 14:05:27;;;;;;;0.73;0.73;;;26.50;57.20;;;;;;6174626;28;20343;-68
2022/07/09 14:08:32;;;;;;;0.90;0.90;;;26.00;58.40;;;;;;6163794;28;20270;-68
2022/07/09 14:11:37;;;;;;;0.90;0.90;;;25.90;58.20;;;;;;6164636;28;20490;-68
2022/07/09 14:14:42;;;;;;;0.88;0.70;;;26.40;59.30;;;;;;6164888;29;20274;-68
2022/07/09 14:17:48;;;;;;;0.77;0.77;;;26.40;57.40;;;;;;6164327;28;20343;-68
2022/07/09 14:20:55;;;;;;;2.63;1.10;;;25.90;56.20;;;;;;6164500;29;20570;-68
2022/07/09 14:24:00;;;;;;;1.00;1.00;;;25.10;55.20;;;;;;6164425;29;20279;-68
2022/07/09 14:27:05;;;;;;;1.10;1.10;;;24.70;60.00;;;;;;6164813;28;20279;-68
2022/07/09 14:30:12;;;;;;;1.15;1.15;;;24.20;62.00;;;;;;6164513;29;20298;-67
2022/07/09 14:33:17;;;;;;;0.82;0.82;;;23.80;61.60;;;;;;6164878;28;20282;-68
2022/07/09 14:36:24;;;;;;;1.90;0.93;;;24.00;61.50;;;;;;6164790;28;20274;-68
2022/07/09 14:39:29;;;;;;;0.80;0.80;;;24.10;61.70;;;;;;6164555;29;20279;-68
2022/07/09 14:42:35;;;;;;;0.60;0.60;;;23.90;59.30;;;;;;6164318;28;20565;-67
2022/07/09 14:45:40;;;;;;;0.60;0.60;;;24.10;60.10;;;;;;6164439;28;20274;-68
2022/07/09 14:48:46;;;;;;;1.25;1.25;;;24.00;59.50;;;;;;6163859;29;20459;-68
2022/07/09 14:51:52;;;;;;;0.90;0.90;;;24.30;59.50;;;;;;6162848;29;20294;-68
2022/07/09 14:54:57;;;;;;;1.25;1.15;;;24.90;58.70;;;;;;6164345;29;20274;-68
2022/07/09 14:58:02;;;;;;;0.70;0.70;;;24.20;57.90;;;;;;6163771;29;20298;-68
2022/07/09 15:01:08;;;;;;;1.17;0.93;;;23.70;59.50;;;;;;6164049;29;20278;-68
2022/07/09 15:04:14;;;;;;;4.40;1.00;;;23.00;62.40;;;;;;6163751;29;20271;-68
2022/07/09 15:07:21;;;;;;;1.98;0.80;;;22.60;64.50;;;;;;6163513;28;20279;-68
2022/07/09 15:10:26;;;;;;;0.90;0.90;;;22.40;64.50;;;;;;6166904;28;20339;-68
2022/07/09 15:13:32;;;;;;;1.83;1.00;;;22.10;64.80;;;;;;6188018;28;20269;-68
2022/07/09 15:16:39;;;;;;;0.75;0.75;;;22.00;65.40;;;;;;6187440;28;20278;-68
2022/07/09 15:19:44;;;;;;;2.20;0.75;;;21.80;66.20;;;;;;6187573;28;20273;-68
2022/07/09 15:22:51;;;;;;;2.00;1.90;;;21.70;66.30;;;;;;6192659;28;20277;-68
2022/07/09 15:25:56;;;;;;;1.30;1.30;;;21.70;66.90;;;;;;6192414;28;20269;-68
2022/07/09 15:29:03;;;;;;;1.00;1.00;;;21.60;67.10;;;;;;6191939;28;20289;-68
2022/07/09 15:32:09;;;;;;;5.28;1.02;;;21.50;65.70;;;;;;6191958;28;20489;-67
2022/07/09 15:35:14;;;;;;;0.90;0.90;;;21.40;66.00;;;;;;6192335;28;20273;-67
2022/07/09 15:38:38;;;;;;;2.75;1.02;;;21.40;68.20;;;;;;6192371;28;20254;-68
2022/07/09 15:41:44;;;;;;;1.90;1.90;;;21.20;65.00;;;;;;6191989;28;20278;-67
2022/07/09 15:44:49;;;;;;;1.92;1.92;;;21.20;66.90;;;;;;6192228;28;20279;-67
2022/07/09 15:47:55;;;;;;;1.00;1.00;;;21.30;69.00;;;;;;6191725;28;20277;-68
2022/07/09 15:51:01;;;;;;;1.40;1.40;;;21.30;69.80;;;;;;6191341;28;20294;-68
2022/07/09 15:54:08;;;;;;;1.95;1.77;;;21.20;72.50;;;;;;6191831;28;20278;-67
2022/07/09 15:57:13;;;;;;;1.40;1.40;;;21.20;72.40;;;;;;6191838;28;20293;-68
2022/07/09 16:00:23;;;;;;;1.23;1.23;;;21.50;74.80;;;;;;6191475;28;20273;-67
2022/07/09 16:03:29;;;;;;;20.05;1.77;;;21.60;77.80;;;;;;6191659;28;20277;-67
2022/07/09 16:06:34;;;;;;;10.43;9.35;;;21.50;81.00;;;;;;6168138;28;20270;-67
2022/07/09 16:09:41;;;;;;;12.70;10.48;;;21.60;78.60;;;;;;6167618;28;20274;-67